sensor_id;sensor_type;location;lat;lon;timestamp;P1;durP1;ratioP1;P2;durP2;ratioP2
75005;SDS011;63553;51.814;4.600;2024-01-30T00:00:34;4.72;;;2.72;;
75005;SDS011;63553;51.814;4.600;2024-01-30T00:02:59;2.77;;;2.47;;
75005;SDS011;63553;51.814;4.600;2024-01-30T00:05:25;4.07;;;2.63;;
75005;SDS011;63553;51.814;4.600;2024-01-30T00:07:50;3.90;;;2.67;;
75005;SDS011;63553;51.814;4.600;2024-01-30T00:10:15;2.97;;;2.43;;
75005;SDS011;63553;51.814;4.600;2024-01-30T00:12:41;4.15;;;2.78;;
75005;SDS011;63553;51.814;4.600;2024-01-30T00:15:06;4.50;;;2.77;;
75005;SDS011;63553;51.814;4.600;2024-01-30T00:17:34;5.43;;;2.97;;
75005;SDS011;63553;51.814;4.600;2024-01-30T00:20:00;3.33;;;2.80;;
75005;SDS011;63553;51.814;4.600;2024-01-30T00:22:26;3.50;;;2.87;;
75005;SDS011;63553;51.814;4.600;2024-01-30T00:24:51;3.27;;;2.73;;
75005;SDS011;63553;51.814;4.600;2024-01-30T00:27:16;3.87;;;2.70;;
75005;SDS011;63553;51.814;4.600;2024-01-30T00:29:42;3.67;;;2.23;;
75005;SDS011;63553;51.814;4.600;2024-01-30T00:32:07;4.97;;;3.00;;
75005;SDS011;63553;51.814;4.600;2024-01-30T00:34:32;4.53;;;3.13;;
75005;SDS011;63553;51.814;4.600;2024-01-30T00:36:57;4.13;;;2.63;;
75005;SDS011;63553;51.814;4.600;2024-01-30T00:39:23;2.70;;;2.50;;
75005;SDS011;63553;51.814;4.600;2024-01-30T00:41:48;4.20;;;3.03;;
75005;SDS011;63553;51.814;4.600;2024-01-30T00:44:13;2.95;;;2.55;;
75005;SDS011;63553;51.814;4.600;2024-01-30T00:46:39;3.13;;;2.70;;
75005;SDS011;63553;51.814;4.600;2024-01-30T00:49:04;4.13;;;2.83;;
75005;SDS011;63553;51.814;4.600;2024-01-30T00:51:29;5.43;;;2.90;;
75005;SDS011;63553;51.814;4.600;2024-01-30T00:53:55;3.10;;;2.53;;
75005;SDS011;63553;51.814;4.600;2024-01-30T00:56:20;3.90;;;2.55;;
75005;SDS011;63553;51.814;4.600;2024-01-30T00:58:46;2.30;;;2.10;;
75005;SDS011;63553;51.814;4.600;2024-01-30T01:01:11;2.88;;;2.33;;
75005;SDS011;63553;51.814;4.600;2024-01-30T01:03:37;3.10;;;2.40;;
75005;SDS011;63553;51.814;4.600;2024-01-30T01:06:02;2.58;;;2.38;;
75005;SDS011;63553;51.814;4.600;2024-01-30T01:08:28;2.83;;;2.50;;
75005;SDS011;63553;51.814;4.600;2024-01-30T01:10:53;2.80;;;2.40;;
75005;SDS011;63553;51.814;4.600;2024-01-30T01:13:18;3.40;;;2.60;;
75005;SDS011;63553;51.814;4.600;2024-01-30T01:15:44;3.47;;;2.50;;
75005;SDS011;63553;51.814;4.600;2024-01-30T01:18:09;2.63;;;2.38;;
75005;SDS011;63553;51.814;4.600;2024-01-30T01:20:34;3.47;;;3.00;;
75005;SDS011;63553;51.814;4.600;2024-01-30T01:23:00;3.15;;;2.80;;
75005;SDS011;63553;51.814;4.600;2024-01-30T01:25:25;2.80;;;2.30;;
75005;SDS011;63553;51.814;4.600;2024-01-30T01:27:51;2.70;;;2.40;;
75005;SDS011;63553;51.814;4.600;2024-01-30T01:30:17;3.50;;;2.30;;
75005;SDS011;63553;51.814;4.600;2024-01-30T01:32:54;2.92;;;2.53;;
75005;SDS011;63553;51.814;4.600;2024-01-30T01:35:25;2.13;;;1.92;;
75005;SDS011;63553;51.814;4.600;2024-01-30T01:37:51;2.92;;;2.30;;
75005;SDS011;63553;51.814;4.600;2024-01-30T01:40:20;2.88;;;2.10;;
75005;SDS011;63553;51.814;4.600;2024-01-30T01:42:47;2.15;;;1.92;;
75005;SDS011;63553;51.814;4.600;2024-01-30T01:45:13;2.75;;;2.38;;
75005;SDS011;63553;51.814;4.600;2024-01-30T01:47:38;2.22;;;2.03;;
75005;SDS011;63553;51.814;4.600;2024-01-30T01:50:04;2.38;;;2.17;;
75005;SDS011;63553;51.814;4.600;2024-01-30T01:52:30;2.42;;;2.20;;
75005;SDS011;63553;51.814;4.600;2024-01-30T01:54:55;3.30;;;2.30;;
75005;SDS011;63553;51.814;4.600;2024-01-30T01:57:20;3.10;;;2.43;;
75005;SDS011;63553;51.814;4.600;2024-01-30T01:59:46;2.50;;;2.30;;
75005;SDS011;63553;51.814;4.600;2024-01-30T02:02:12;2.58;;;2.30;;
75005;SDS011;63553;51.814;4.600;2024-01-30T02:04:40;2.28;;;1.92;;
75005;SDS011;63553;51.814;4.600;2024-01-30T02:07:06;2.47;;;2.28;;
75005;SDS011;63553;51.814;4.600;2024-01-30T02:09:32;2.53;;;2.33;;
75005;SDS011;63553;51.814;4.600;2024-01-30T02:11:57;2.57;;;2.13;;
75005;SDS011;63553;51.814;4.600;2024-01-30T02:14:23;3.40;;;2.70;;
75005;SDS011;63553;51.814;4.600;2024-01-30T02:16:48;2.63;;;2.13;;
75005;SDS011;63553;51.814;4.600;2024-01-30T02:19:13;2.80;;;2.30;;
75005;SDS011;63553;51.814;4.600;2024-01-30T02:21:38;3.30;;;1.90;;
75005;SDS011;63553;51.814;4.600;2024-01-30T02:24:04;2.40;;;2.20;;
75005;SDS011;63553;51.814;4.600;2024-01-30T02:26:30;2.75;;;2.30;;
75005;SDS011;63553;51.814;4.600;2024-01-30T02:28:56;2.33;;;2.03;;
75005;SDS011;63553;51.814;4.600;2024-01-30T02:31:21;3.50;;;2.03;;
75005;SDS011;63553;51.814;4.600;2024-01-30T02:33:46;2.20;;;2.00;;
75005;SDS011;63553;51.814;4.600;2024-01-30T02:36:12;2.57;;;2.10;;
75005;SDS011;63553;51.814;4.600;2024-01-30T02:38:37;2.20;;;2.03;;
75005;SDS011;63553;51.814;4.600;2024-01-30T02:41:02;2.33;;;1.90;;
75005;SDS011;63553;51.814;4.600;2024-01-30T02:43:28;2.20;;;2.00;;
75005;SDS011;63553;51.814;4.600;2024-01-30T02:45:53;2.77;;;2.10;;
75005;SDS011;63553;51.814;4.600;2024-01-30T02:48:18;2.23;;;2.07;;
75005;SDS011;63553;51.814;4.600;2024-01-30T02:50:43;2.67;;;2.47;;
75005;SDS011;63553;51.814;4.600;2024-01-30T02:53:09;3.97;;;2.15;;
75005;SDS011;63553;51.814;4.600;2024-01-30T02:55:34;2.28;;;2.08;;
75005;SDS011;63553;51.814;4.600;2024-01-30T02:58:00;2.08;;;1.88;;
75005;SDS011;63553;51.814;4.600;2024-01-30T03:00:25;3.05;;;2.20;;
75005;SDS011;63553;51.814;4.600;2024-01-30T03:02:50;2.20;;;2.00;;
75005;SDS011;63553;51.814;4.600;2024-01-30T03:05:16;2.73;;;2.33;;
75005;SDS011;63553;51.814;4.600;2024-01-30T03:07:41;3.37;;;2.10;;
75005;SDS011;63553;51.814;4.600;2024-01-30T03:10:06;2.40;;;2.07;;
75005;SDS011;63553;51.814;4.600;2024-01-30T03:12:32;1.88;;;1.77;;
75005;SDS011;63553;51.814;4.600;2024-01-30T03:14:58;2.60;;;2.40;;
75005;SDS011;63553;51.814;4.600;2024-01-30T03:17:23;2.10;;;2.00;;
75005;SDS011;63553;51.814;4.600;2024-01-30T03:19:49;2.20;;;2.00;;
75005;SDS011;63553;51.814;4.600;2024-01-30T03:22:14;2.20;;;2.00;;
75005;SDS011;63553;51.814;4.600;2024-01-30T03:24:40;2.35;;;1.80;;
75005;SDS011;63553;51.814;4.600;2024-01-30T03:27:05;2.20;;;2.00;;
75005;SDS011;63553;51.814;4.600;2024-01-30T03:29:30;2.27;;;2.07;;
75005;SDS011;63553;51.814;4.600;2024-01-30T03:31:56;2.03;;;1.83;;
75005;SDS011;63553;51.814;4.600;2024-01-30T03:34:21;1.90;;;1.70;;
75005;SDS011;63553;51.814;4.600;2024-01-30T03:36:47;2.58;;;2.08;;
75005;SDS011;63553;51.814;4.600;2024-01-30T03:39:12;2.95;;;1.90;;
75005;SDS011;63553;51.814;4.600;2024-01-30T03:41:37;1.90;;;1.80;;
75005;SDS011;63553;51.814;4.600;2024-01-30T03:44:03;2.07;;;1.93;;
75005;SDS011;63553;51.814;4.600;2024-01-30T03:46:28;2.47;;;2.28;;
75005;SDS011;63553;51.814;4.600;2024-01-30T03:48:54;2.72;;;2.10;;
75005;SDS011;63553;51.814;4.600;2024-01-30T03:51:19;2.50;;;2.30;;
75005;SDS011;63553;51.814;4.600;2024-01-30T03:53:44;2.63;;;2.42;;
75005;SDS011;63553;51.814;4.600;2024-01-30T03:56:11;2.30;;;2.10;;
75005;SDS011;63553;51.814;4.600;2024-01-30T03:58:38;2.65;;;2.45;;
75005;SDS011;63553;51.814;4.600;2024-01-30T04:01:04;1.85;;;1.75;;
75005;SDS011;63553;51.814;4.600;2024-01-30T04:03:29;2.00;;;1.90;;
75005;SDS011;63553;51.814;4.600;2024-01-30T04:05:54;2.33;;;2.13;;
75005;SDS011;63553;51.814;4.600;2024-01-30T04:08:20;2.78;;;2.35;;
75005;SDS011;63553;51.814;4.600;2024-01-30T04:10:46;2.42;;;2.05;;
75005;SDS011;63553;51.814;4.600;2024-01-30T04:13:12;2.92;;;2.20;;
75005;SDS011;63553;51.814;4.600;2024-01-30T04:15:37;1.92;;;1.83;;
75005;SDS011;63553;51.814;4.600;2024-01-30T04:18:03;2.30;;;2.10;;
75005;SDS011;63553;51.814;4.600;2024-01-30T04:20:29;2.00;;;1.80;;
75005;SDS011;63553;51.814;4.600;2024-01-30T04:22:55;2.30;;;2.00;;
75005;SDS011;63553;51.814;4.600;2024-01-30T04:25:20;2.00;;;1.83;;
75005;SDS011;63553;51.814;4.600;2024-01-30T04:27:45;1.90;;;1.80;;
75005;SDS011;63553;51.814;4.600;2024-01-30T04:30:11;1.95;;;1.85;;
75005;SDS011;63553;51.814;4.600;2024-01-30T04:32:36;2.30;;;2.00;;
75005;SDS011;63553;51.814;4.600;2024-01-30T04:35:02;2.00;;;1.90;;
75005;SDS011;63553;51.814;4.600;2024-01-30T04:37:27;1.98;;;1.73;;
75005;SDS011;63553;51.814;4.600;2024-01-30T04:39:53;4.65;;;2.67;;
75005;SDS011;63553;51.814;4.600;2024-01-30T04:42:18;2.20;;;2.03;;
75005;SDS011;63553;51.814;4.600;2024-01-30T04:44:44;2.08;;;1.70;;
75005;SDS011;63553;51.814;4.600;2024-01-30T04:47:09;1.90;;;1.80;;
75005;SDS011;63553;51.814;4.600;2024-01-30T04:49:37;2.38;;;2.17;;
75005;SDS011;63553;51.814;4.600;2024-01-30T04:52:04;2.25;;;2.03;;
75005;SDS011;63553;51.814;4.600;2024-01-30T04:54:29;2.20;;;2.00;;
75005;SDS011;63553;51.814;4.600;2024-01-30T04:56:55;2.23;;;2.03;;
75005;SDS011;63553;51.814;4.600;2024-01-30T04:59:20;2.17;;;1.97;;
75005;SDS011;63553;51.814;4.600;2024-01-30T05:01:45;2.25;;;1.80;;
75005;SDS011;63553;51.814;4.600;2024-01-30T05:04:11;1.90;;;1.80;;
75005;SDS011;63553;51.814;4.600;2024-01-30T05:06:36;2.22;;;2.03;;
75005;SDS011;63553;51.814;4.600;2024-01-30T05:09:02;2.78;;;2.00;;
75005;SDS011;63553;51.814;4.600;2024-01-30T05:11:29;2.13;;;1.77;;
75005;SDS011;63553;51.814;4.600;2024-01-30T05:13:55;3.95;;;1.90;;
75005;SDS011;63553;51.814;4.600;2024-01-30T05:16:20;2.70;;;2.20;;
75005;SDS011;63553;51.814;4.600;2024-01-30T05:18:45;3.03;;;2.40;;
75005;SDS011;63553;51.814;4.600;2024-01-30T05:21:11;2.23;;;2.00;;
75005;SDS011;63553;51.814;4.600;2024-01-30T05:23:36;2.50;;;1.75;;
75005;SDS011;63553;51.814;4.600;2024-01-30T05:26:02;63.92;;;11.70;;
75005;SDS011;63553;51.814;4.600;2024-01-30T05:28:28;48.88;;;9.55;;
75005;SDS011;63553;51.814;4.600;2024-01-30T05:30:55;29.25;;;6.68;;
75005;SDS011;63553;51.814;4.600;2024-01-30T05:33:21;26.50;;;6.18;;
75005;SDS011;63553;51.814;4.600;2024-01-30T05:35:46;21.98;;;5.30;;
75005;SDS011;63553;51.814;4.600;2024-01-30T05:38:12;15.43;;;4.17;;
75005;SDS011;63553;51.814;4.600;2024-01-30T05:40:37;15.30;;;4.32;;
75005;SDS011;63553;51.814;4.600;2024-01-30T05:43:12;11.15;;;4.00;;
75005;SDS011;63553;51.814;4.600;2024-01-30T05:45:37;9.05;;;3.42;;
75005;SDS011;63553;51.814;4.600;2024-01-30T05:48:03;6.35;;;3.25;;
75005;SDS011;63553;51.814;4.600;2024-01-30T05:50:28;5.88;;;2.63;;
75005;SDS011;63553;51.814;4.600;2024-01-30T05:52:54;5.18;;;2.47;;
75005;SDS011;63553;51.814;4.600;2024-01-30T05:55:20;5.00;;;2.28;;
75005;SDS011;63553;51.814;4.600;2024-01-30T05:57:45;3.00;;;2.10;;
75005;SDS011;63553;51.814;4.600;2024-01-30T06:00:10;4.20;;;2.07;;
75005;SDS011;63553;51.814;4.600;2024-01-30T06:02:36;3.90;;;2.22;;
75005;SDS011;63553;51.814;4.600;2024-01-30T06:05:01;2.67;;;1.90;;
75005;SDS011;63553;51.814;4.600;2024-01-30T06:07:27;2.90;;;2.17;;
75005;SDS011;63553;51.814;4.600;2024-01-30T06:09:52;5.63;;;2.22;;
75005;SDS011;63553;51.814;4.600;2024-01-30T06:12:17;3.83;;;2.10;;
75005;SDS011;63553;51.814;4.600;2024-01-30T06:14:43;5.83;;;2.57;;
75005;SDS011;63553;51.814;4.600;2024-01-30T06:17:08;9.47;;;2.70;;
75005;SDS011;63553;51.814;4.600;2024-01-30T06:19:34;6.63;;;2.20;;
75005;SDS011;63553;51.814;4.600;2024-01-30T06:22:00;4.18;;;2.38;;
75005;SDS011;63553;51.814;4.600;2024-01-30T06:24:26;5.15;;;2.33;;
75005;SDS011;63553;51.814;4.600;2024-01-30T06:26:52;3.25;;;2.03;;
75005;SDS011;63553;51.814;4.600;2024-01-30T06:29:18;4.28;;;2.13;;
75005;SDS011;63553;51.814;4.600;2024-01-30T06:31:43;4.03;;;2.15;;
75005;SDS011;63553;51.814;4.600;2024-01-30T06:34:12;4.13;;;2.10;;
75005;SDS011;63553;51.814;4.600;2024-01-30T06:36:37;2.80;;;2.00;;
75005;SDS011;63553;51.814;4.600;2024-01-30T06:39:03;5.22;;;1.92;;
75005;SDS011;63553;51.814;4.600;2024-01-30T06:41:29;2.63;;;2.22;;
75005;SDS011;63553;51.814;4.600;2024-01-30T06:43:54;2.25;;;1.65;;
75005;SDS011;63553;51.814;4.600;2024-01-30T06:46:20;3.10;;;1.75;;
75005;SDS011;63553;51.814;4.600;2024-01-30T06:48:45;2.50;;;1.90;;
75005;SDS011;63553;51.814;4.600;2024-01-30T06:51:11;3.03;;;2.20;;
75005;SDS011;63553;51.814;4.600;2024-01-30T06:53:37;5.82;;;1.90;;
75005;SDS011;63553;51.814;4.600;2024-01-30T06:56:02;2.08;;;1.88;;
75005;SDS011;63553;51.814;4.600;2024-01-30T06:58:28;1.73;;;1.63;;
75005;SDS011;63553;51.814;4.600;2024-01-30T07:00:54;3.83;;;2.00;;
75005;SDS011;63553;51.814;4.600;2024-01-30T07:03:19;4.53;;;1.88;;
75005;SDS011;63553;51.814;4.600;2024-01-30T07:05:45;3.25;;;1.90;;
75005;SDS011;63553;51.814;4.600;2024-01-30T07:08:10;7.40;;;1.90;;
75005;SDS011;63553;51.814;4.600;2024-01-30T07:10:35;5.10;;;2.10;;
75005;SDS011;63553;51.814;4.600;2024-01-30T07:13:01;8.90;;;2.03;;
75005;SDS011;63553;51.814;4.600;2024-01-30T07:15:26;2.40;;;1.67;;
75005;SDS011;63553;51.814;4.600;2024-01-30T07:17:52;2.30;;;1.73;;
75005;SDS011;63553;51.814;4.600;2024-01-30T07:20:17;3.03;;;1.80;;
75005;SDS011;63553;51.814;4.600;2024-01-30T07:22:45;1.90;;;1.80;;
75005;SDS011;63553;51.814;4.600;2024-01-30T07:25:10;2.30;;;1.63;;
75005;SDS011;63553;51.814;4.600;2024-01-30T07:27:36;8.02;;;1.70;;
75005;SDS011;63553;51.814;4.600;2024-01-30T07:30:01;4.13;;;1.70;;
75005;SDS011;63553;51.814;4.600;2024-01-30T07:32:27;6.88;;;1.60;;
75005;SDS011;63553;51.814;4.600;2024-01-30T07:34:52;2.55;;;1.55;;
75005;SDS011;63553;51.814;4.600;2024-01-30T07:37:18;2.40;;;2.00;;
75005;SDS011;63553;51.814;4.600;2024-01-30T07:39:44;2.67;;;1.60;;
75005;SDS011;63553;51.814;4.600;2024-01-30T07:42:09;1.83;;;1.73;;
75005;SDS011;63553;51.814;4.600;2024-01-30T07:44:35;2.15;;;1.92;;
75005;SDS011;63553;51.814;4.600;2024-01-30T07:47:01;1.42;;;1.40;;
75005;SDS011;63553;51.814;4.600;2024-01-30T07:49:27;1.75;;;1.63;;
75005;SDS011;63553;51.814;4.600;2024-01-30T07:51:53;2.00;;;1.77;;
75005;SDS011;63553;51.814;4.600;2024-01-30T07:54:18;2.37;;;1.70;;
75005;SDS011;63553;51.814;4.600;2024-01-30T07:56:44;1.70;;;1.60;;
75005;SDS011;63553;51.814;4.600;2024-01-30T07:59:09;2.63;;;1.60;;
75005;SDS011;63553;51.814;4.600;2024-01-30T08:01:36;1.77;;;1.63;;
75005;SDS011;63553;51.814;4.600;2024-01-30T08:04:01;2.92;;;1.60;;
75005;SDS011;63553;51.814;4.600;2024-01-30T08:06:27;2.20;;;1.60;;
75005;SDS011;63553;51.814;4.600;2024-01-30T08:08:52;1.70;;;1.50;;
75005;SDS011;63553;51.814;4.600;2024-01-30T08:11:19;2.45;;;1.55;;
75005;SDS011;63553;51.814;4.600;2024-01-30T08:13:50;1.88;;;1.67;;
75005;SDS011;63553;51.814;4.600;2024-01-30T08:16:16;1.52;;;1.42;;
75005;SDS011;63553;51.814;4.600;2024-01-30T08:18:41;1.37;;;1.27;;
75005;SDS011;63553;51.814;4.600;2024-01-30T08:21:07;2.17;;;1.80;;
75005;SDS011;63553;51.814;4.600;2024-01-30T08:23:32;1.90;;;1.70;;
75005;SDS011;63553;51.814;4.600;2024-01-30T08:25:58;1.70;;;1.60;;
75005;SDS011;63553;51.814;4.600;2024-01-30T08:28:23;1.90;;;1.60;;
75005;SDS011;63553;51.814;4.600;2024-01-30T08:30:49;1.53;;;1.43;;
75005;SDS011;63553;51.814;4.600;2024-01-30T08:33:14;3.80;;;1.90;;
75005;SDS011;63553;51.814;4.600;2024-01-30T08:35:40;1.90;;;1.50;;
75005;SDS011;63553;51.814;4.600;2024-01-30T08:38:05;1.80;;;1.70;;
75005;SDS011;63553;51.814;4.600;2024-01-30T08:40:30;3.08;;;1.70;;
75005;SDS011;63553;51.814;4.600;2024-01-30T08:42:56;1.70;;;1.60;;
75005;SDS011;63553;51.814;4.600;2024-01-30T08:45:21;1.55;;;1.45;;
75005;SDS011;63553;51.814;4.600;2024-01-30T08:47:47;2.90;;;1.50;;
75005;SDS011;63553;51.814;4.600;2024-01-30T08:50:12;1.95;;;1.70;;
75005;SDS011;63553;51.814;4.600;2024-01-30T08:52:37;2.30;;;1.52;;
75005;SDS011;63553;51.814;4.600;2024-01-30T08:55:03;1.60;;;1.50;;
75005;SDS011;63553;51.814;4.600;2024-01-30T08:57:29;2.40;;;1.60;;
75005;SDS011;63553;51.814;4.600;2024-01-30T08:59:55;2.53;;;1.75;;
75005;SDS011;63553;51.814;4.600;2024-01-30T09:02:21;1.67;;;1.58;;
75005;SDS011;63553;51.814;4.600;2024-01-30T09:04:46;2.42;;;1.70;;
75005;SDS011;63553;51.814;4.600;2024-01-30T09:07:12;1.90;;;1.80;;
75005;SDS011;63553;51.814;4.600;2024-01-30T09:09:39;2.80;;;1.63;;
75005;SDS011;63553;51.814;4.600;2024-01-30T09:12:06;1.50;;;1.40;;
75005;SDS011;63553;51.814;4.600;2024-01-30T09:14:34;1.70;;;1.60;;
75005;SDS011;63553;51.814;4.600;2024-01-30T09:17:00;1.52;;;1.42;;
75005;SDS011;63553;51.814;4.600;2024-01-30T09:19:25;2.10;;;1.40;;
75005;SDS011;63553;51.814;4.600;2024-01-30T09:21:51;2.78;;;1.50;;
75005;SDS011;63553;51.814;4.600;2024-01-30T09:24:17;1.70;;;1.60;;
75005;SDS011;63553;51.814;4.600;2024-01-30T09:26:42;1.73;;;1.40;;
75005;SDS011;63553;51.814;4.600;2024-01-30T09:29:07;1.67;;;1.57;;
75005;SDS011;63553;51.814;4.600;2024-01-30T09:31:32;2.20;;;1.60;;
75005;SDS011;63553;51.814;4.600;2024-01-30T09:33:58;2.27;;;1.80;;
75005;SDS011;63553;51.814;4.600;2024-01-30T09:36:23;1.57;;;1.47;;
75005;SDS011;63553;51.814;4.600;2024-01-30T09:38:49;1.75;;;1.65;;
75005;SDS011;63553;51.814;4.600;2024-01-30T09:41:14;2.07;;;1.60;;
75005;SDS011;63553;51.814;4.600;2024-01-30T09:43:40;1.50;;;1.40;;
75005;SDS011;63553;51.814;4.600;2024-01-30T09:46:13;3.33;;;1.80;;
75005;SDS011;63553;51.814;4.600;2024-01-30T09:48:41;1.95;;;1.85;;
75005;SDS011;63553;51.814;4.600;2024-01-30T09:51:08;1.92;;;1.60;;
75005;SDS011;63553;51.814;4.600;2024-01-30T09:53:34;1.77;;;1.67;;
75005;SDS011;63553;51.814;4.600;2024-01-30T09:56:02;2.20;;;1.60;;
75005;SDS011;63553;51.814;4.600;2024-01-30T09:58:28;1.80;;;1.70;;
75005;SDS011;63553;51.814;4.600;2024-01-30T10:00:53;3.15;;;1.60;;
75005;SDS011;63553;51.814;4.600;2024-01-30T10:03:19;1.60;;;1.50;;
75005;SDS011;63553;51.814;4.600;2024-01-30T10:05:46;3.30;;;1.77;;
75005;SDS011;63553;51.814;4.600;2024-01-30T10:08:16;1.98;;;1.70;;
75005;SDS011;63553;51.814;4.600;2024-01-30T10:10:45;1.92;;;1.60;;
75005;SDS011;63553;51.814;4.600;2024-01-30T10:13:11;2.15;;;2.05;;
75005;SDS011;63553;51.814;4.600;2024-01-30T10:15:37;2.27;;;1.83;;
75005;SDS011;63553;51.814;4.600;2024-01-30T10:18:04;1.70;;;1.60;;
75005;SDS011;63553;51.814;4.600;2024-01-30T10:20:31;1.60;;;1.50;;
75005;SDS011;63553;51.814;4.600;2024-01-30T10:22:57;1.90;;;1.70;;
75005;SDS011;63553;51.814;4.600;2024-01-30T10:25:23;2.25;;;1.90;;
75005;SDS011;63553;51.814;4.600;2024-01-30T10:27:52;1.65;;;1.55;;
75005;SDS011;63553;51.814;4.600;2024-01-30T10:30:19;2.15;;;1.80;;
75005;SDS011;63553;51.814;4.600;2024-01-30T10:32:44;1.52;;;1.42;;
75005;SDS011;63553;51.814;4.600;2024-01-30T10:35:10;1.87;;;1.70;;
75005;SDS011;63553;51.814;4.600;2024-01-30T10:37:35;2.03;;;1.80;;
75005;SDS011;63553;51.814;4.600;2024-01-30T10:40:03;2.13;;;1.90;;
75005;SDS011;63553;51.814;4.600;2024-01-30T10:42:31;1.70;;;1.60;;
75005;SDS011;63553;51.814;4.600;2024-01-30T10:45:00;1.60;;;1.50;;
75005;SDS011;63553;51.814;4.600;2024-01-30T10:47:32;1.60;;;1.50;;
75005;SDS011;63553;51.814;4.600;2024-01-30T10:49:59;3.25;;;1.50;;
75005;SDS011;63553;51.814;4.600;2024-01-30T10:52:26;2.95;;;1.70;;
75005;SDS011;63553;51.814;4.600;2024-01-30T10:54:54;1.70;;;1.60;;
75005;SDS011;63553;51.814;4.600;2024-01-30T10:57:21;1.58;;;1.48;;
75005;SDS011;63553;51.814;4.600;2024-01-30T10:59:48;3.80;;;1.70;;
75005;SDS011;63553;51.814;4.600;2024-01-30T11:02:15;2.08;;;1.60;;
75005;SDS011;63553;51.814;4.600;2024-01-30T11:04:41;8.15;;;1.80;;
75005;SDS011;63553;51.814;4.600;2024-01-30T11:07:16;1.98;;;1.45;;
75005;SDS011;63553;51.814;4.600;2024-01-30T11:09:52;1.60;;;1.50;;
75005;SDS011;63553;51.814;4.600;2024-01-30T11:12:22;3.15;;;1.60;;
75005;SDS011;63553;51.814;4.600;2024-01-30T11:14:48;2.03;;;1.48;;
75005;SDS011;63553;51.814;4.600;2024-01-30T11:17:14;3.58;;;2.08;;
75005;SDS011;63553;51.814;4.600;2024-01-30T11:19:41;1.58;;;1.48;;
75005;SDS011;63553;51.814;4.600;2024-01-30T11:22:07;1.80;;;1.70;;
75005;SDS011;63553;51.814;4.600;2024-01-30T11:24:39;2.90;;;1.50;;
75005;SDS011;63553;51.814;4.600;2024-01-30T11:27:07;1.42;;;1.35;;
75005;SDS011;63553;51.814;4.600;2024-01-30T11:29:34;2.05;;;1.60;;
75005;SDS011;63553;51.814;4.600;2024-01-30T11:32:00;1.40;;;1.30;;
75005;SDS011;63553;51.814;4.600;2024-01-30T11:34:25;1.55;;;1.30;;
75005;SDS011;63553;51.814;4.600;2024-01-30T11:36:57;1.77;;;1.60;;
75005;SDS011;63553;51.814;4.600;2024-01-30T11:39:27;1.35;;;1.25;;
75005;SDS011;63553;51.814;4.600;2024-01-30T11:41:55;3.03;;;1.20;;
75005;SDS011;63553;51.814;4.600;2024-01-30T11:44:21;1.85;;;1.23;;
75005;SDS011;63553;51.814;4.600;2024-01-30T11:46:50;1.52;;;1.30;;
75005;SDS011;63553;51.814;4.600;2024-01-30T11:49:16;1.70;;;1.33;;
75005;SDS011;63553;51.814;4.600;2024-01-30T11:51:42;1.88;;;1.48;;
75005;SDS011;63553;51.814;4.600;2024-01-30T11:54:10;2.15;;;1.45;;
75005;SDS011;63553;51.814;4.600;2024-01-30T11:56:36;1.27;;;1.17;;
75005;SDS011;63553;51.814;4.600;2024-01-30T11:59:03;1.77;;;1.67;;
75005;SDS011;63553;51.814;4.600;2024-01-30T12:01:29;1.83;;;1.17;;
75005;SDS011;63553;51.814;4.600;2024-01-30T12:03:55;1.50;;;1.40;;
75005;SDS011;63553;51.814;4.600;2024-01-30T12:06:21;1.30;;;1.20;;
75005;SDS011;63553;51.814;4.600;2024-01-30T12:08:57;1.45;;;1.20;;
75005;SDS011;63553;51.814;4.600;2024-01-30T12:11:24;1.95;;;1.27;;
75005;SDS011;63553;51.814;4.600;2024-01-30T12:13:50;1.25;;;1.25;;
75005;SDS011;63553;51.814;4.600;2024-01-30T12:16:16;3.30;;;1.40;;
75005;SDS011;63553;51.814;4.600;2024-01-30T12:18:42;1.77;;;1.33;;
75005;SDS011;63553;51.814;4.600;2024-01-30T12:21:07;1.95;;;1.17;;
75005;SDS011;63553;51.814;4.600;2024-01-30T12:23:34;1.80;;;1.30;;
75005;SDS011;63553;51.814;4.600;2024-01-30T12:26:00;1.17;;;1.10;;
75005;SDS011;63553;51.814;4.600;2024-01-30T12:28:27;2.10;;;1.00;;
75005;SDS011;63553;51.814;4.600;2024-01-30T12:30:56;1.90;;;1.10;;
75005;SDS011;63553;51.814;4.600;2024-01-30T12:33:26;1.13;;;1.10;;
75005;SDS011;63553;51.814;4.600;2024-01-30T12:35:51;1.25;;;1.15;;
75005;SDS011;63553;51.814;4.600;2024-01-30T12:38:17;1.52;;;1.05;;
75005;SDS011;63553;51.814;4.600;2024-01-30T12:40:42;0.85;;;0.85;;
75005;SDS011;63553;51.814;4.600;2024-01-30T12:43:08;1.15;;;1.08;;
75005;SDS011;63553;51.814;4.600;2024-01-30T12:45:33;1.55;;;0.90;;
75005;SDS011;63553;51.814;4.600;2024-01-30T12:47:59;2.50;;;1.00;;
75005;SDS011;63553;51.814;4.600;2024-01-30T12:50:24;1.30;;;1.20;;
75005;SDS011;63553;51.814;4.600;2024-01-30T12:52:50;1.38;;;1.10;;
75005;SDS011;63553;51.814;4.600;2024-01-30T12:55:16;1.17;;;1.00;;
75005;SDS011;63553;51.814;4.600;2024-01-30T12:57:42;1.95;;;1.27;;
75005;SDS011;63553;51.814;4.600;2024-01-30T13:00:08;0.80;;;0.80;;
75005;SDS011;63553;51.814;4.600;2024-01-30T13:02:34;1.15;;;0.90;;
75005;SDS011;63553;51.814;4.600;2024-01-30T13:05:03;0.85;;;0.85;;
75005;SDS011;63553;51.814;4.600;2024-01-30T13:07:29;1.80;;;1.08;;
75005;SDS011;63553;51.814;4.600;2024-01-30T13:09:55;1.83;;;0.90;;
75005;SDS011;63553;51.814;4.600;2024-01-30T13:12:21;1.60;;;1.10;;
75005;SDS011;63553;51.814;4.600;2024-01-30T13:14:46;1.58;;;1.00;;
75005;SDS011;63553;51.814;4.600;2024-01-30T13:17:12;0.80;;;0.80;;
75005;SDS011;63553;51.814;4.600;2024-01-30T13:19:37;1.10;;;0.82;;
75005;SDS011;63553;51.814;4.600;2024-01-30T13:22:03;1.77;;;1.00;;
75005;SDS011;63553;51.814;4.600;2024-01-30T13:24:28;1.73;;;1.25;;
75005;SDS011;63553;51.814;4.600;2024-01-30T13:26:53;1.07;;;0.97;;
75005;SDS011;63553;51.814;4.600;2024-01-30T13:29:19;1.38;;;0.93;;
75005;SDS011;63553;51.814;4.600;2024-01-30T13:31:44;0.98;;;0.95;;
75005;SDS011;63553;51.814;4.600;2024-01-30T13:34:11;0.98;;;0.98;;
75005;SDS011;63553;51.814;4.600;2024-01-30T13:36:37;0.88;;;0.88;;
75005;SDS011;63553;51.814;4.600;2024-01-30T13:39:03;1.83;;;1.23;;
75005;SDS011;63553;51.814;4.600;2024-01-30T13:41:32;1.30;;;1.02;;
75005;SDS011;63553;51.814;4.600;2024-01-30T13:43:57;0.83;;;0.83;;
75005;SDS011;63553;51.814;4.600;2024-01-30T13:46:23;2.57;;;0.80;;
75005;SDS011;63553;51.814;4.600;2024-01-30T13:48:48;2.05;;;0.90;;
75005;SDS011;63553;51.814;4.600;2024-01-30T13:51:13;0.90;;;0.90;;
75005;SDS011;63553;51.814;4.600;2024-01-30T13:53:39;1.30;;;0.80;;
75005;SDS011;63553;51.814;4.600;2024-01-30T13:56:04;1.23;;;0.90;;
75005;SDS011;63553;51.814;4.600;2024-01-30T13:58:31;1.25;;;1.00;;
75005;SDS011;63553;51.814;4.600;2024-01-30T14:00:58;1.95;;;1.10;;
75005;SDS011;63553;51.814;4.600;2024-01-30T14:03:23;0.77;;;0.77;;
75005;SDS011;63553;51.814;4.600;2024-01-30T14:05:49;1.33;;;1.10;;
75005;SDS011;63553;51.814;4.600;2024-01-30T14:08:15;1.23;;;0.90;;
75005;SDS011;63553;51.814;4.600;2024-01-30T14:10:40;1.05;;;0.70;;
75005;SDS011;63553;51.814;4.600;2024-01-30T14:13:05;1.98;;;1.27;;
75005;SDS011;63553;51.814;4.600;2024-01-30T14:15:31;2.78;;;1.23;;
75005;SDS011;63553;51.814;4.600;2024-01-30T14:17:56;1.93;;;1.07;;
75005;SDS011;63553;51.814;4.600;2024-01-30T14:20:21;1.87;;;0.83;;
75005;SDS011;63553;51.814;4.600;2024-01-30T14:22:47;1.20;;;1.10;;
75005;SDS011;63553;51.814;4.600;2024-01-30T14:25:12;0.90;;;0.80;;
75005;SDS011;63553;51.814;4.600;2024-01-30T14:27:38;0.93;;;0.93;;
75005;SDS011;63553;51.814;4.600;2024-01-30T14:30:03;2.93;;;1.20;;
75005;SDS011;63553;51.814;4.600;2024-01-30T14:32:29;0.77;;;0.77;;
75005;SDS011;63553;51.814;4.600;2024-01-30T14:34:54;1.33;;;0.77;;
75005;SDS011;63553;51.814;4.600;2024-01-30T14:37:22;0.90;;;0.70;;
75005;SDS011;63553;51.814;4.600;2024-01-30T14:39:48;2.58;;;1.00;;